Time;durP1;ratioP1;P1;durP2;ratioP2;P2;SDS_P1;SDS_P2;PMS_P1;PMS_P2;Temp;Humidity;BMP_temperature;BMP_pressure;BME280_temperature;BME280_humidity;BME280_pressure;Samples;Min_cycle;Max_cycle;Signal;HPM_P1;HPM_P2
2024/01/31 00:00:22;;;;;;;34.43;25.47;;;-2.60;99.90;-2.60;98331.00;;;;5020639;28;20477;-83
2024/01/31 00:03:11;;;;;;;43.93;27.87;;;-2.90;99.90;-2.60;98310.00;;;;5007871;28;20437;-81
2024/01/31 00:06:00;;;;;;;45.43;30.87;;;-2.70;99.90;-2.40;98321.00;;;;5005772;28;20476;-82
2024/01/31 00:08:50;;;;;;;42.60;30.10;;;-2.80;99.90;-2.40;98325.00;;;;5021501;28;20417;-83
2024/01/31 00:11:39;;;;;;;36.00;27.30;;;-2.90;99.90;-2.60;98325.00;;;;5022484;28;20448;-83
2024/01/31 00:14:28;;;;;;;34.47;26.10;;;-2.90;99.90;-2.70;98325.00;;;;5027049;28;20422;-82
2024/01/31 00:17:17;;;;;;;40.90;29.13;;;-3.00;99.90;-2.40;98317.00;;;;5028192;28;20942;-81
2024/01/31 00:20:08;;;;;;;43.00;30.03;;;-2.80;99.90;-2.20;98313.00;;;;5003591;28;20426;-82
2024/01/31 00:22:57;;;;;;;36.57;26.93;;;-2.90;99.90;-2.30;98321.00;;;;5022376;28;20487;-83
2024/01/31 00:25:47;;;;;;;37.07;27.23;;;-2.60;99.90;-2.30;98308.00;;;;5021187;28;20462;-83
2024/01/31 00:28:36;;;;;;;32.23;25.40;;;-2.80;99.90;-2.60;98316.00;;;;5003035;28;20430;-84
2024/01/31 00:31:25;;;;;;;31.23;25.90;;;-2.90;99.90;-2.80;98305.00;;;;5020540;28;20448;-84
2024/01/31 00:34:14;;;;;;;45.83;29.40;;;-3.10;99.90;-2.30;98317.00;;;;5011423;27;20434;-83
2024/01/31 00:37:03;;;;;;;45.80;29.93;;;-3.00;99.90;-2.70;98310.00;;;;5000828;28;20974;-83
2024/01/31 00:39:52;;;;;;;37.73;28.40;;;-3.00;99.90;-2.50;98314.00;;;;5008211;28;20418;-82
2024/01/31 00:42:42;;;;;;;48.67;31.97;;;-2.90;99.90;-1.90;98321.00;;;;5031287;28;20434;-83
2024/01/31 00:45:31;;;;;;;47.77;30.73;;;-2.90;99.90;-1.00;98323.00;;;;5027498;28;20475;-84
2024/01/31 00:52:47;;;;;;;56.50;34.70;;;-2.50;99.90;-2.10;98324.00;;;;5082584;28;20475;-68
2024/01/31 00:55:36;;;;;;;39.00;27.70;;;-2.70;99.90;-1.60;98315.00;;;;5065332;28;20489;-70
2024/01/31 00:58:26;;;;;;;41.33;30.33;;;-2.50;99.90;-1.20;98333.00;;;;5071156;28;20557;-67
2024/01/31 01:01:15;;;;;;;56.87;36.47;;;-2.60;99.90;-0.80;98330.00;;;;4993160;28;20439;-68
2024/01/31 01:04:04;;;;;;;38.73;29.37;;;-2.30;99.90;-1.90;98333.00;;;;4963190;28;20606;-71
2024/01/31 01:06:53;;;;;;;44.90;32.33;;;-2.50;99.90;-1.90;98332.00;;;;4950378;28;20451;-69
2024/01/31 01:09:41;;;;;;;39.77;30.67;;;-2.60;99.90;-2.00;98324.00;;;;4754795;29;20440;-68
2024/01/31 01:12:30;;;;;;;41.83;30.67;;;-2.80;99.90;-1.40;98321.00;;;;4791834;29;20462;-68
2024/01/31 01:15:21;;;;;;;52.77;34.83;;;-2.70;99.90;-1.10;98333.00;;;;4783526;29;20840;-68
2024/01/31 01:18:09;;;;;;;83.60;46.97;;;-2.60;99.90;-1.50;98334.00;;;;4784078;29;20451;-71
2024/01/31 01:20:58;;;;;;;45.87;32.03;;;-2.60;99.90;-1.30;98336.00;;;;4786361;29;20432;-71
2024/01/31 01:23:47;;;;;;;50.47;34.07;;;-2.70;99.90;-0.90;98335.00;;;;4779159;29;20460;-69
2024/01/31 01:26:40;;;;;;;53.03;34.87;;;-2.50;99.90;-1.00;98331.00;;;;4784521;29;20438;-68
2024/01/31 01:29:28;;;;;;;53.73;35.40;;;-2.50;99.90;-0.30;98335.00;;;;4784075;29;20950;-68
2024/01/31 01:32:19;;;;;;;62.97;39.27;;;-2.30;99.90;-0.40;98327.00;;;;4785730;29;20439;-68
2024/01/31 01:35:08;;;;;;;70.87;42.33;;;-2.30;99.90;-0.40;98339.00;;;;4788480;29;20487;-68
2024/01/31 01:37:57;;;;;;;61.10;38.70;;;-2.20;99.90;-1.00;98320.00;;;;4784905;29;20440;-68
2024/01/31 01:40:46;;;;;;;50.00;34.53;;;-2.30;99.90;-1.10;98315.00;;;;4781708;29;20446;-68
2024/01/31 01:43:35;;;;;;;55.30;36.20;;;-2.40;99.90;-1.90;98312.00;;;;4784844;29;20559;-67
2024/01/31 01:46:25;;;;;;;62.93;38.80;;;-2.50;99.90;-1.80;98313.00;;;;4784207;29;20447;-68
2024/01/31 01:49:15;;;;;;;66.90;40.73;;;-2.50;99.90;-1.90;98305.00;;;;4787488;29;20436;-67
2024/01/31 01:52:06;;;;;;;62.90;38.57;;;-2.60;99.90;-1.40;98311.00;;;;4786133;29;20977;-70
2024/01/31 01:54:55;;;;;;;65.30;38.17;;;-2.80;99.90;-0.90;98303.00;;;;4784588;29;20524;-69
2024/01/31 01:57:44;;;;;;;81.33;43.77;;;-2.70;99.90;-1.10;98290.00;;;;4781303;29;20432;-68
2024/01/31 02:00:34;;;;;;;84.97;43.77;;;-2.50;99.90;-1.50;98293.00;;;;4781838;29;20966;-68
2024/01/31 02:03:24;;;;;;;56.30;35.70;;;-2.40;99.90;-1.40;98291.00;;;;4787618;29;20462;-68
2024/01/31 02:06:14;;;;;;;61.43;39.27;;;-2.50;99.90;-1.30;98305.00;;;;4782442;29;20436;-68
2024/01/31 02:09:04;;;;;;;58.60;37.70;;;-2.60;99.90;-1.60;98297.00;;;;4810274;29;20906;-69
2024/01/31 02:11:53;;;;;;;46.83;32.30;;;-2.60;99.90;-1.40;98299.00;;;;4837793;29;20445;-69
2024/01/31 02:14:41;;;;;;;53.33;35.10;;;-2.70;99.90;-0.90;98302.00;;;;4851747;29;20832;-67
2024/01/31 02:17:33;;;;;;;51.67;34.67;;;-2.50;99.90;-0.40;98299.00;;;;4855752;29;20444;-68
2024/01/31 02:20:22;;;;;;;57.03;36.57;;;-2.40;99.90;0.00;98309.00;;;;4854582;29;20836;-68
2024/01/31 02:23:12;;;;;;;67.83;41.03;;;-2.20;99.90;-0.60;98302.00;;;;4853170;29;20459;-70
2024/01/31 02:26:01;;;;;;;68.70;42.23;;;-2.10;99.90;-1.40;98285.00;;;;4854715;29;20463;-71
2024/01/31 02:28:50;;;;;;;58.77;38.73;;;-2.20;99.90;-0.80;98286.00;;;;4852434;29;20425;-68
2024/01/31 02:31:39;;;;;;;55.30;36.43;;;-2.40;99.90;-0.80;98274.00;;;;4852088;29;20443;-70
2024/01/31 02:34:28;;;;;;;55.33;35.97;;;-2.30;99.90;-0.60;98281.00;;;;4853911;29;20456;-69
2024/01/31 02:37:17;;;;;;;62.93;38.97;;;-2.20;99.90;-0.50;98280.00;;;;4853750;29;20498;-68
2024/01/31 02:40:09;;;;;;;69.40;42.27;;;-2.20;99.90;0.00;98287.00;;;;4853563;29;20445;-69
2024/01/31 02:42:58;;;;;;;55.60;36.73;;;-2.00;99.90;-0.70;98283.00;;;;4853232;29;21060;-69
2024/01/31 02:45:47;;;;;;;49.90;33.90;;;-2.00;99.90;-0.20;98283.00;;;;4854866;29;20436;-68
2024/01/31 02:48:36;;;;;;;56.17;37.17;;;-1.90;99.90;-0.40;98293.00;;;;4851080;29;20829;-69
2024/01/31 02:51:25;;;;;;;61.13;39.07;;;-2.00;99.90;-1.00;98258.00;;;;4854506;29;20432;-66
2024/01/31 02:54:14;;;;;;;59.87;38.77;;;-2.10;99.90;-1.60;98262.00;;;;4853393;29;20954;-71
2024/01/31 02:57:04;;;;;;;58.40;37.93;;;-2.20;99.90;-1.60;98266.00;;;;4854277;29;20488;-68
2024/01/31 02:59:53;;;;;;;54.73;35.80;;;-2.40;99.90;-0.80;98262.00;;;;4855194;29;20464;-69
2024/01/31 03:02:43;;;;;;;61.50;39.70;;;-2.30;99.90;-0.70;98259.00;;;;4861286;29;20466;-68
2024/01/31 03:05:32;;;;;;;55.93;37.73;;;-2.40;99.90;0.00;98259.00;;;;4865920;29;20439;-68
2024/01/31 03:08:21;;;;;;;62.57;38.90;;;-2.20;99.90;-0.90;98266.00;;;;4902832;28;20939;-71
2024/01/31 03:11:10;;;;;;;57.70;37.63;;;-2.10;99.90;-1.70;98244.00;;;;4969295;28;20453;-69
2024/01/31 03:14:00;;;;;;;47.90;32.97;;;-2.10;99.90;-1.70;98246.00;;;;4988224;28;20468;-71
2024/01/31 03:16:49;;;;;;;41.63;31.37;;;-2.20;99.90;-0.90;98257.00;;;;4987536;28;20477;-71
2024/01/31 03:19:38;;;;;;;46.40;31.90;;;-2.20;99.90;-0.60;98253.00;;;;4995406;28;20468;-68
2024/01/31 03:22:27;;;;;;;50.90;34.20;;;-2.00;99.90;-0.50;98260.00;;;;4993252;28;20442;-68
2024/01/31 03:25:16;;;;;;;52.20;34.23;;;-2.00;99.90;-0.80;98252.00;;;;4991040;28;20626;-71
2024/01/31 03:28:05;;;;;;;73.17;42.70;;;-2.00;99.90;-0.40;98247.00;;;;4988312;28;20426;-70
2024/01/31 03:30:55;;;;;;;40.33;29.60;;;-1.90;99.90;-1.10;98242.00;;;;4987153;28;20433;-68
2024/01/31 03:33:45;;;;;;;47.97;32.77;;;-2.00;99.90;-1.00;98251.00;;;;4986854;28;20454;-71
2024/01/31 03:36:34;;;;;;;56.30;36.93;;;-1.90;99.90;-1.00;98248.00;;;;4990868;28;20466;-69
2024/01/31 03:39:23;;;;;;;55.67;36.17;;;-2.00;99.90;-0.40;98252.00;;;;4989622;28;20433;-68
2024/01/31 03:42:13;;;;;;;59.37;37.77;;;-2.00;99.90;-0.20;98260.00;;;;4990006;28;20430;-70
2024/01/31 03:45:03;;;;;;;68.60;41.27;;;-1.90;99.90;-0.60;98253.00;;;;4994617;28;20429;-68
2024/01/31 03:47:54;;;;;;;59.40;38.20;;;-1.90;99.90;-0.20;98266.00;;;;4987234;28;20429;-68
2024/01/31 03:50:43;;;;;;;49.43;34.87;;;-1.90;99.90;-0.20;98260.00;;;;4989505;28;20426;-68
2024/01/31 03:53:32;;;;;;;52.23;35.10;;;-1.80;99.90;0.30;98274.00;;;;4989415;28;20476;-69
2024/01/31 03:56:20;;;;;;;52.30;35.27;;;-1.70;99.90;0.90;98272.00;;;;4989672;28;20893;-68
2024/01/31 03:59:09;;;;;;;62.80;39.90;;;-1.60;99.90;0.70;98278.00;;;;4993110;28;20426;-69
2024/01/31 04:01:58;;;;;;;57.27;38.33;;;-1.40;99.90;0.00;98261.00;;;;4990083;28;20426;-69
2024/01/31 04:04:48;;;;;;;50.77;36.23;;;-1.40;99.90;-0.70;98251.00;;;;4984988;28;20441;-68
2024/01/31 04:07:37;;;;;;;51.30;35.63;;;-1.20;99.90;-0.70;98258.00;;;;4983662;28;20810;-71
2024/01/31 04:10:27;;;;;;;46.40;33.57;;;-1.60;99.90;0.20;98281.00;;;;4949644;28;20430;-69
2024/01/31 04:13:16;;;;;;;66.43;41.03;;;-1.50;99.90;0.40;98278.00;;;;4995081;28;20958;-70
2024/01/31 04:16:06;;;;;;;63.87;40.80;;;-1.50;99.90;0.30;98284.00;;;;4999001;28;20429;-69
2024/01/31 04:18:55;;;;;;;59.90;39.57;;;-1.40;99.90;0.20;98274.00;;;;4996888;28;20425;-69
2024/01/31 04:21:45;;;;;;;50.73;35.47;;;-1.40;99.90;-0.30;98270.00;;;;4995646;28;20421;-69
2024/01/31 04:24:34;;;;;;;49.80;35.43;;;-1.50;99.90;-0.60;98263.00;;;;4992371;28;20429;-70
2024/01/31 04:27:23;;;;;;;48.90;35.30;;;-1.60;99.90;-0.20;98271.00;;;;5003143;28;20785;-70
2024/01/31 04:30:14;;;;;;;69.00;44.00;;;-1.60;99.90;-0.10;98271.00;;;;4999380;28;20441;-71
2024/01/31 04:33:03;;;;;;;52.23;36.30;;;-1.60;99.90;-0.90;98264.00;;;;4995814;28;20458;-71
2024/01/31 04:35:52;;;;;;;53.93;36.20;;;-1.60;99.90;-0.80;98267.00;;;;4995661;28;20453;-71
2024/01/31 04:38:43;;;;;;;50.43;35.30;;;-1.60;99.90;-0.10;98278.00;;;;4995959;28;20421;-68
2024/01/31 04:41:31;;;;;;;46.83;34.03;;;-1.50;99.90;-0.10;98273.00;;;;4995443;28;20433;-69
2024/01/31 04:44:20;;;;;;;52.93;36.50;;;-1.50;99.90;-0.10;98283.00;;;;4996924;28;20447;-68
2024/01/31 04:47:09;;;;;;;61.43;39.40;;;-1.50;99.90;0.50;98290.00;;;;4999114;28;20449;-69
2024/01/31 04:49:58;;;;;;;50.10;34.87;;;-1.50;99.90;0.00;98274.00;;;;4997612;28;20421;-71
2024/01/31 04:52:47;;;;;;;64.33;40.93;;;-1.50;99.90;-0.20;98285.00;;;;4994839;28;20547;-69
2024/01/31 04:55:38;;;;;;;50.17;35.40;;;-1.50;99.90;-0.10;98288.00;;;;4993221;28;20429;-66
2024/01/31 04:58:27;;;;;;;52.37;36.03;;;-1.50;99.90;0.10;98283.00;;;;4999252;28;21185;-66
2024/01/31 05:01:16;;;;;;;51.27;34.90;;;-1.40;99.90;0.00;98284.00;;;;5000286;28;20430;-67
2024/01/31 05:04:05;;;;;;;65.70;41.30;;;-1.40;99.90;-0.20;98270.00;;;;4999840;28;20457;-70
2024/01/31 05:06:54;;;;;;;54.57;36.67;;;-1.40;99.90;-0.30;98271.00;;;;4993174;28;20855;-69
2024/01/31 05:09:42;;;;;;;54.87;36.73;;;-1.40;99.90;0.70;98289.00;;;;4972703;28;20996;-66
2024/01/31 05:12:33;;;;;;;62.27;39.63;;;-1.30;99.90;1.00;98294.00;;;;4926872;28;20449;-66
2024/01/31 05:15:22;;;;;;;58.50;39.67;;;-1.20;99.90;1.20;98304.00;;;;4932353;28;20433;-66
2024/01/31 05:18:11;;;;;;;78.50;46.43;;;-1.10;99.90;0.20;98291.00;;;;4925621;28;20476;-69
2024/01/31 05:21:01;;;;;;;49.13;35.43;;;-1.10;99.90;0.10;98290.00;;;;4926232;28;20429;-66
2024/01/31 05:23:50;;;;;;;55.93;37.13;;;-1.10;99.90;-0.10;98287.00;;;;4927600;28;20461;-66
2024/01/31 05:26:40;;;;;;;55.77;37.60;;;-1.20;99.90;0.30;98295.00;;;;4928203;28;20437;-66
2024/01/31 05:29:30;;;;;;;49.97;35.30;;;-1.20;99.90;0.30;98290.00;;;;4931048;28;20460;-69
2024/01/31 05:32:19;;;;;;;69.43;42.50;;;-1.10;99.90;0.70;98295.00;;;;4927366;28;20441;-66
2024/01/31 05:35:08;;;;;;;64.10;40.47;;;-1.10;99.90;0.40;98304.00;;;;4919444;28;20436;-66
2024/01/31 05:37:57;;;;;;;62.00;40.00;;;-1.10;99.90;1.10;98310.00;;;;4922673;28;20468;-68
2024/01/31 05:40:46;;;;;;;70.27;44.50;;;-1.00;99.90;0.30;98301.00;;;;4933527;28;20417;-67
2024/01/31 05:43:35;;;;;;;62.50;40.00;;;-1.00;99.90;1.00;98311.00;;;;4922668;28;20472;-66
2024/01/31 05:46:25;;;;;;;72.63;44.87;;;-0.90;99.90;1.00;98322.00;;;;4928890;28;20437;-66
2024/01/31 05:49:14;;;;;;;75.13;45.63;;;-0.90;99.90;0.70;98320.00;;;;4923261;28;20425;-67
2024/01/31 05:52:03;;;;;;;68.97;42.00;;;-0.90;99.90;0.30;98304.00;;;;4926027;28;20436;-70
2024/01/31 05:54:53;;;;;;;62.10;40.33;;;-0.90;99.90;0.90;98307.00;;;;4924803;28;20437;-67
2024/01/31 05:57:42;;;;;;;67.10;41.97;;;-0.80;99.90;1.00;98308.00;;;;4920797;28;20480;-66
2024/01/31 06:00:31;;;;;;;66.83;41.53;;;-0.80;99.90;1.20;98314.00;;;;4924741;28;20985;-66
2024/01/31 06:03:22;;;;;;;79.67;46.47;;;-0.70;99.90;0.60;98308.00;;;;4926230;28;20543;-68
2024/01/31 06:06:11;;;;;;;70.77;43.93;;;-0.80;99.90;1.00;98311.00;;;;4924957;28;20440;-67
2024/01/31 06:09:00;;;;;;;67.60;43.27;;;-0.80;99.90;0.70;98311.00;;;;4930684;28;20422;-67
2024/01/31 06:11:49;;;;;;;62.83;39.77;;;-0.70;99.90;1.60;98326.00;;;;4962708;28;20431;-67
2024/01/31 06:14:38;;;;;;;64.87;40.53;;;-0.60;99.90;1.60;98325.00;;;;4959976;28;20435;-66
2024/01/31 06:17:27;;;;;;;68.07;41.80;;;-0.50;99.90;1.30;98330.00;;;;4963978;28;20475;-66
2024/01/31 06:20:17;;;;;;;82.90;48.47;;;-0.40;99.90;0.60;98311.00;;;;4964286;28;20936;-68
2024/01/31 06:23:06;;;;;;;73.13;44.83;;;-0.50;99.90;0.50;98322.00;;;;4964109;28;21025;-69
2024/01/31 06:25:55;;;;;;;64.57;40.57;;;-0.60;99.90;0.30;98309.00;;;;4958883;28;20435;-68
2024/01/31 06:28:44;;;;;;;64.43;41.40;;;-0.80;99.90;0.50;98328.00;;;;4960721;28;20431;-66
2024/01/31 06:31:40;;;;;;;87.93;50.20;;;-0.90;99.90;0.10;98317.00;;;;4956393;28;20441;-69
2024/01/31 06:34:28;;;;;;;237.37;126.77;;;-0.20;99.90;0.80;98326.00;;;;4900984;28;22450;-68
2024/01/31 06:37:19;;;;;;;240.30;141.60;;;-1.00;99.90;0.80;98323.00;;;;4902447;28;20480;-66
2024/01/31 06:40:09;;;;;;;243.83;136.17;;;-1.00;99.90;0.70;98325.00;;;;4903512;28;20819;-68
2024/01/31 06:42:58;;;;;;;124.40;73.00;;;-0.90;99.90;0.80;98334.00;;;;4946539;28;20469;-66
2024/01/31 06:45:47;;;;;;;229.97;126.00;;;-0.90;99.90;0.90;98328.00;;;;4947495;28;20521;-67
2024/01/31 06:48:36;;;;;;;164.93;92.37;;;-0.80;99.90;1.10;98324.00;;;;4900533;28;20432;-67
2024/01/31 06:51:25;;;;;;;72.37;44.33;;;-0.80;99.90;1.00;98330.00;;;;4961928;28;20442;-69
2024/01/31 06:54:15;;;;;;;82.40;48.17;;;-0.80;99.90;0.90;98334.00;;;;4963635;28;20444;-65
2024/01/31 06:57:04;;;;;;;77.97;46.67;;;-0.80;99.90;0.70;98337.00;;;;4961387;28;20962;-66
2024/01/31 06:59:53;;;;;;;112.30;68.63;;;-0.80;99.90;0.60;98332.00;;;;4957168;28;20822;-65
2024/01/31 07:02:42;;;;;;;217.27;128.80;;;-0.80;99.90;0.80;98331.00;;;;4906757;28;20475;-67
2024/01/31 07:05:31;;;;;;;85.57;48.30;;;-0.80;99.90;1.10;98338.00;;;;4903181;28;20451;-66
2024/01/31 07:08:20;;;;;;;209.23;120.83;;;-0.80;99.90;1.10;98344.00;;;;4909239;28;20822;-67
2024/01/31 07:11:10;;;;;;;167.83;96.90;;;-0.70;99.90;1.30;98332.00;;;;4909308;28;20463;-67
2024/01/31 07:13:59;;;;;;;211.43;125.77;;;-0.50;99.90;0.50;98324.00;;;;4902590;28;20503;-66
2024/01/31 07:16:48;;;;;;;196.43;114.93;;;-0.80;99.90;0.30;98328.00;;;;4903959;28;20432;-68
2024/01/31 07:19:37;;;;;;;56.87;37.40;;;-0.90;99.90;0.50;98332.00;;;;4951574;28;20467;-68
2024/01/31 07:22:26;;;;;;;69.73;43.87;;;-1.00;99.90;0.60;98333.00;;;;4963077;28;20967;-68
2024/01/31 07:25:16;;;;;;;101.07;56.20;;;-0.90;99.90;0.50;98335.00;;;;4961031;28;20453;-70
2024/01/31 07:28:07;;;;;;;123.00;65.93;;;-0.90;99.90;0.00;98327.00;;;;4980831;22;20517;-72
2024/01/31 07:30:56;;;;;;;68.23;41.93;;;-1.00;99.90;0.20;98330.00;;;;4955880;28;20861;-76
2024/01/31 07:33:46;;;;;;;63.00;39.93;;;-1.00;99.90;0.80;98342.00;;;;4964864;28;20440;-74
2024/01/31 07:36:35;;;;;;;75.47;44.73;;;-1.00;99.90;0.40;98328.00;;;;4962152;28;20443;-74
2024/01/31 07:39:23;;;;;;;67.07;41.53;;;-0.90;99.90;0.90;98335.00;;;;4944754;28;20478;-74
2024/01/31 07:42:12;;;;;;;89.13;50.17;;;-0.80;99.90;1.30;98346.00;;;;4938810;28;20452;-71
2024/01/31 07:45:04;;;;;;;80.30;45.77;;;-0.60;99.90;1.40;98337.00;;;;4935664;28;20994;-73
2024/01/31 07:47:53;;;;;;;82.93;48.27;;;-0.10;99.90;1.20;98341.00;;;;4940753;28;20447;-73
2024/01/31 07:50:43;;;;;;;69.20;41.43;;;-0.30;99.90;1.10;98338.00;;;;4940325;28;20945;-74
2024/01/31 07:53:32;;;;;;;81.77;47.87;;;-0.30;99.90;1.30;98351.00;;;;4939108;28;20447;-74
2024/01/31 07:56:21;;;;;;;87.00;49.63;;;-0.20;99.90;1.70;98349.00;;;;4942404;28;20432;-74
2024/01/31 07:59:10;;;;;;;88.93;49.67;;;0.00;99.90;1.30;98351.00;;;;4938508;28;20475;-74
2024/01/31 08:02:00;;;;;;;77.03;46.10;;;0.00;99.90;1.10;98342.00;;;;4940277;28;20440;-73
2024/01/31 08:04:51;;;;;;;78.90;46.60;;;0.00;99.90;1.30;98358.00;;;;4956099;28;20451;-75
2024/01/31 08:07:43;;;;;;;76.57;45.17;;;0.00;99.90;1.70;98368.00;;;;4944975;28;20953;-72
2024/01/31 08:10:32;;;;;;;79.73;46.33;;;0.00;99.90;1.50;98362.00;;;;4942114;28;20441;-71
2024/01/31 08:13:21;;;;;;;79.93;47.67;;;0.00;99.90;1.60;98362.00;;;;4944950;28;21182;-74
2024/01/31 08:16:12;;;;;;;89.13;51.00;;;0.00;99.90;1.40;98361.00;;;;4942854;28;20448;-73
2024/01/31 08:19:02;;;;;;;82.63;49.07;;;0.00;99.90;1.30;98358.00;;;;4940459;28;20535;-74
2024/01/31 08:21:51;;;;;;;66.67;42.67;;;0.00;99.90;1.30;98367.00;;;;4938398;28;20487;-73
2024/01/31 08:24:40;;;;;;;75.67;45.47;;;-0.10;99.90;1.70;98369.00;;;;4938829;28;20813;-73
2024/01/31 08:27:29;;;;;;;75.07;44.90;;;-0.10;99.90;1.80;98364.00;;;;4941046;28;20470;-73
2024/01/31 08:30:18;;;;;;;93.10;52.37;;;0.00;99.90;2.20;98381.00;;;;4942833;28;20440;-74
2024/01/31 08:33:07;;;;;;;79.67;48.13;;;0.10;99.90;2.30;98370.00;;;;4943761;28;20450;-73
2024/01/31 08:35:57;;;;;;;81.33;47.17;;;0.30;99.90;2.20;98378.00;;;;4943547;28;20450;-75
2024/01/31 08:38:46;;;;;;;74.50;44.70;;;0.40;99.90;2.00;98366.00;;;;4940580;28;20471;-73
2024/01/31 08:41:35;;;;;;;79.53;45.67;;;0.40;99.90;2.10;98367.00;;;;4938760;28;20433;-73
2024/01/31 08:44:24;;;;;;;86.20;49.97;;;0.60;99.90;2.10;98375.00;;;;4940418;28;20437;-74
2024/01/31 08:47:13;;;;;;;94.27;52.77;;;0.70;99.90;2.80;98374.00;;;;4940147;28;20452;-74
2024/01/31 08:50:05;;;;;;;100.50;55.67;;;0.80;99.90;3.00;98367.00;;;;4941967;28;20460;-73
2024/01/31 08:52:55;;;;;;;101.37;55.37;;;0.90;99.90;3.30;98359.00;;;;4938341;28;20444;-72
2024/01/31 08:55:44;;;;;;;88.17;49.27;;;1.00;99.90;3.60;98355.00;;;;4942984;28;20582;-72
2024/01/31 08:58:37;;;;;;;101.97;55.03;;;1.20;99.90;3.20;98341.00;;;;4941738;28;21499;-74
2024/01/31 09:01:26;;;;;;;99.97;54.77;;;1.30;99.90;3.40;98338.00;;;;4941638;28;21010;-75
2024/01/31 09:04:15;;;;;;;110.50;57.57;;;1.40;99.90;4.60;98362.00;;;;4937217;28;20445;-73
2024/01/31 09:07:04;;;;;;;115.17;58.20;;;1.70;99.90;4.40;98354.00;;;;4941074;28;20444;-73
2024/01/31 09:09:55;;;;;;;117.70;59.03;;;1.90;99.90;5.00;98344.00;;;;4942334;28;20460;-73
2024/01/31 09:12:44;;;;;;;146.53;70.00;;;2.30;99.90;5.40;98352.00;;;;4939342;28;20448;-74
2024/01/31 09:15:33;;;;;;;130.13;62.37;;;2.50;99.90;5.40;98341.00;;;;4943225;28;20436;-73
2024/01/31 09:18:22;;;;;;;151.17;72.80;;;2.80;99.90;6.50;98355.00;;;;4942281;28;20866;-73
2024/01/31 09:21:22;;;;;;;158.63;75.27;;;3.20;99.90;7.10;98347.00;;;;4941425;28;20490;-73
2024/01/31 09:24:10;;;;;;;169.13;79.70;;;3.60;99.90;7.10;98344.00;;;;4942248;28;20212;-74
2024/01/31 09:27:01;;;;;;;145.73;69.37;;;4.00;99.90;7.40;98362.00;;;;4944150;28;20680;-73
2024/01/31 09:29:50;;;;;;;148.57;70.20;;;4.30;99.90;7.30;98348.00;;;;4943771;28;20251;-73
2024/01/31 09:32:39;;;;;;;159.00;77.13;;;4.60;99.90;8.10;98349.00;;;;4942567;28;20219;-73
2024/01/31 09:35:28;;;;;;;153.60;74.50;;;4.90;99.90;8.20;98351.00;;;;4936407;28;20599;-72
2024/01/31 09:38:16;;;;;;;187.23;89.37;;;5.10;99.90;8.30;98360.00;;;;4938237;28;21170;-71
2024/01/31 09:41:05;;;;;;;161.43;78.27;;;5.40;99.90;8.70;98360.00;;;;4939176;28;20708;-72
2024/01/31 09:43:56;;;;;;;160.93;78.30;;;5.70;99.90;8.40;98355.00;;;;4941087;28;20728;-74
2024/01/31 09:46:48;;;;;;;158.27;76.50;;;5.90;99.90;9.30;98360.00;;;;4945245;28;20212;-74
2024/01/31 09:49:37;;;;;;;173.30;83.77;;;6.10;99.90;8.80;98346.00;;;;4942498;28;20246;-74
2024/01/31 09:52:28;;;;;;;187.60;89.57;;;6.30;98.40;8.80;98352.00;;;;4943767;28;20648;-73
2024/01/31 09:55:18;;;;;;;190.90;89.63;;;6.50;97.60;9.20;98340.00;;;;4943869;28;20251;-73
2024/01/31 09:58:07;;;;;;;196.50;93.73;;;6.70;97.30;9.30;98353.00;;;;4942237;28;20232;-72
2024/01/31 10:01:00;;;;;;;182.17;86.90;;;6.80;96.80;10.00;98351.00;;;;4939332;28;20614;-72
2024/01/31 10:03:49;;;;;;;182.03;87.97;;;7.00;96.80;9.40;98338.00;;;;4939827;29;20257;-73
2024/01/31 10:06:38;;;;;;;188.93;89.57;;;7.10;95.50;9.40;98335.00;;;;4942080;28;20207;-73
2024/01/31 10:09:30;;;;;;;185.47;89.97;;;7.30;94.60;10.20;98336.00;;;;4942643;28;20236;-73
2024/01/31 10:12:20;;;;;;;204.43;97.37;;;7.50;94.90;10.10;98330.00;;;;4942608;28;20216;-69
2024/01/31 10:15:10;;;;;;;216.80;102.30;;;7.60;94.00;11.10;98331.00;;;;4942636;28;20223;-73
2024/01/31 10:18:00;;;;;;;209.70;97.70;;;8.00;99.90;10.80;98322.00;;;;4943958;28;20215;-70
2024/01/31 10:20:51;;;;;;;206.13;95.77;;;8.00;93.20;11.40;98321.00;;;;4942423;28;20206;-71
2024/01/31 10:23:40;;;;;;;205.27;96.23;;;8.20;93.10;11.40;98315.00;;;;4942940;28;21006;-70
2024/01/31 10:26:29;;;;;;;218.90;102.13;;;8.40;92.70;11.50;98313.00;;;;4942337;28;20746;-72
2024/01/31 10:29:20;;;;;;;228.77;106.33;;;8.50;91.70;11.90;98311.00;;;;4943618;28;20224;-72
2024/01/31 10:32:09;;;;;;;240.13;110.07;;;8.70;91.80;12.30;98313.00;;;;4942044;28;20212;-71
2024/01/31 10:35:01;;;;;;;223.53;106.57;;;9.00;91.30;12.20;98303.00;;;;4941070;28;20741;-72
2024/01/31 10:37:57;;;;;;;236.50;111.47;;;9.20;99.90;11.80;98302.00;;;;4939250;28;20204;-73
2024/01/31 10:40:51;;;;;;;242.17;114.27;;;9.30;90.10;12.70;98303.00;;;;4943558;28;20207;-70
2024/01/31 10:43:41;;;;;;;234.07;113.33;;;9.60;90.00;12.50;98303.00;;;;4942783;28;20217;-72
2024/01/31 10:46:30;;;;;;;251.50;120.63;;;10.20;85.40;12.90;98314.00;;;;4939936;28;20204;-71
2024/01/31 10:49:19;;;;;;;259.10;128.63;;;10.80;84.50;13.80;98304.00;;;;4943275;28;20238;-71
2024/01/31 10:52:16;;;;;;;260.63;128.30;;;11.50;83.00;13.50;98300.00;;;;4938591;28;20208;-71
2024/01/31 10:55:07;;;;;;;265.17;134.40;;;11.90;78.40;12.10;98294.00;;;;4942743;28;20227;-71
2024/01/31 10:57:57;;;;;;;268.07;133.57;;;11.80;95.80;12.80;98294.00;;;;4940453;28;20215;-71
2024/01/31 11:00:47;;;;;;;266.93;134.50;;;11.70;76.20;13.10;98287.00;;;;4937754;28;20212;-72
2024/01/31 11:03:36;;;;;;;289.63;143.60;;;11.90;75.50;14.60;98292.00;;;;4942304;28;20212;-71
2024/01/31 11:06:25;;;;;;;303.97;141.57;;;12.40;74.90;14.90;98289.00;;;;4941623;28;20259;-71
2024/01/31 11:09:22;;;;;;;328.27;152.97;;;13.00;73.70;14.90;98293.00;;;;4937812;28;20660;-71
2024/01/31 11:12:15;;;;;;;337.00;156.37;;;13.40;71.30;14.80;98289.00;;;;4940401;28;20685;-71
2024/01/31 11:15:07;;;;;;;382.93;151.70;;;13.60;68.70;15.50;98274.00;;;;4941543;28;20204;-71
2024/01/31 11:18:09;;;;;;;372.90;151.87;;;13.80;91.70;15.40;98272.00;;;;4939043;28;20208;-71
2024/01/31 11:20:58;;;;;;;371.67;156.37;;;13.90;67.90;15.60;98264.00;;;;4943578;28;20203;-70
2024/01/31 11:23:48;;;;;;;366.93;158.63;;;14.20;66.90;15.00;98260.00;;;;4940883;28;20231;-71
2024/01/31 11:26:39;;;;;;;371.50;167.50;;;14.30;64.30;16.10;98257.00;;;;4940021;28;20205;-72
2024/01/31 11:29:28;;;;;;;359.23;168.47;;;14.30;65.70;16.60;98262.00;;;;4940932;28;20240;-71
2024/01/31 11:32:17;;;;;;;376.03;185.57;;;14.60;65.30;16.20;98251.00;;;;4936609;28;20708;-72
2024/01/31 11:35:07;;;;;;;372.57;185.47;;;14.60;64.20;17.30;98259.00;;;;4941568;28;20216;-71
2024/01/31 11:37:57;;;;;;;377.63;192.43;;;15.00;86.90;17.10;98259.00;;;;4932398;28;20201;-72
2024/01/31 11:40:46;;;;;;;382.90;199.93;;;15.10;62.30;17.60;98255.00;;;;4941747;28;20681;-70
2024/01/31 11:43:36;;;;;;;382.83;205.80;;;15.30;63.30;17.80;98265.00;;;;4943448;28;20665;-71
2024/01/31 11:46:25;;;;;;;404.40;225.87;;;15.50;62.70;18.20;98255.00;;;;4938721;28;20212;-71
2024/01/31 11:49:14;;;;;;;400.13;221.27;;;15.60;62.60;17.70;98250.00;;;;4937557;28;20239;-71
2024/01/31 11:52:04;;;;;;;402.30;234.43;;;15.70;61.70;18.20;98254.00;;;;4941409;28;20212;-71
2024/01/31 11:54:53;;;;;;;392.07;231.93;;;15.70;61.00;18.50;98240.00;;;;4942071;28;20211;-71
2024/01/31 11:57:42;;;;;;;391.37;239.17;;;15.80;60.70;18.20;98245.00;;;;4937151;28;20208;-71
2024/01/31 12:00:32;;;;;;;393.97;240.83;;;15.80;60.50;18.00;98233.00;;;;4942791;28;20208;-71
2024/01/31 12:03:21;;;;;;;404.33;249.20;;;15.60;59.90;18.60;98233.00;;;;4942215;28;20212;-70
2024/01/31 12:06:10;;;;;;;404.80;251.53;;;15.70;59.80;18.70;98233.00;;;;4940826;28;20665;-70
2024/01/31 12:08:59;;;;;;;402.57;254.80;;;15.80;59.70;18.10;98224.00;;;;4942683;28;20231;-72
2024/01/31 12:11:48;;;;;;;386.90;245.63;;;15.70;59.10;18.40;98216.00;;;;4945117;28;20228;-71
2024/01/31 12:14:37;;;;;;;395.00;255.80;;;15.70;58.90;19.60;98212.00;;;;4946868;28;20639;-71
2024/01/31 12:17:28;;;;;;;401.03;264.87;;;16.00;59.60;19.20;98210.00;;;;4945062;28;20217;-70
2024/01/31 12:20:18;;;;;;;413.67;281.23;;;16.30;58.80;19.50;98216.00;;;;4942053;28;20200;-71